createdAt,value
2022-12-08T00:00:29.944Z,63.04
2022-12-08T00:06:08.695Z,61.76
2022-12-08T00:11:14.603Z,59.71
2022-12-08T00:16:18.325Z,63.35
2022-12-08T00:21:22.315Z,62.09
2022-12-08T00:26:26.090Z,60.04
2022-12-08T00:31:29.806Z,62.44
2022-12-08T00:36:34.202Z,61.74
2022-12-08T00:41:56.455Z,59.12
2022-12-08T00:47:00.484Z,63.31
2022-12-08T00:52:04.332Z,60.65
2022-12-08T00:57:08.344Z,59.75
2022-12-08T01:02:12.064Z,64.35
2022-12-08T01:07:15.785Z,61.61
2022-12-08T01:12:19.403Z,59.79
2022-12-08T01:17:23.024Z,61.51
2022-12-08T01:22:26.640Z,63.36
2022-12-08T01:27:30.445Z,59.37
2022-12-08T01:32:34.087Z,62.68
2022-12-08T01:37:37.752Z,61.03
2022-12-08T01:42:41.945Z,59.14
2022-12-08T01:47:51.807Z,63.35
2022-12-08T01:53:04.479Z,60.81
2022-12-08T01:58:23.446Z,60.27
2022-12-08T02:03:59.885Z,63.67
2022-12-08T02:09:05.898Z,60.61
2022-12-08T02:14:13.383Z,60.08
2022-12-08T02:19:31.051Z,63.55
2022-12-08T02:24:46.715Z,60.07
2022-12-08T02:30:08.194Z,60.89
2022-12-08T02:35:22.137Z,62.15
2022-12-08T02:40:40.225Z,60.44
2022-12-08T02:45:57.112Z,61.68
2022-12-08T02:51:01.078Z,61.39
2022-12-08T02:56:56.199Z,60.90
2022-12-08T03:02:48.503Z,61.81
2022-12-08T03:08:13.972Z,60.16
2022-12-08T03:13:29.898Z,63.86
2022-12-08T03:18:44.200Z,60.74
2022-12-08T03:23:54.480Z,61.03
2022-12-08T03:28:59.085Z,63.45
2022-12-08T03:34:04.969Z,61.59
2022-12-08T03:39:08.603Z,61.01
2022-12-08T03:44:12.419Z,63.60
2022-12-08T03:49:16.067Z,60.43
2022-12-08T03:54:19.957Z,62.05
2022-12-08T03:59:23.776Z,63.28
2022-12-08T04:04:27.605Z,60.88
2022-12-08T04:09:31.531Z,60.27
2022-12-08T04:14:35.386Z,60.40
2022-12-08T04:19:41.343Z,60.46
2022-12-08T04:24:44.953Z,64.51
2022-12-08T04:29:48.687Z,62.35
2022-12-08T04:34:52.396Z,60.78
2022-12-08T04:39:56.525Z,61.38
2022-12-08T04:45:00.349Z,61.13
2022-12-08T04:50:06.569Z,60.17
2022-12-08T04:55:10.488Z,64.65
2022-12-08T05:00:14.897Z,61.08
2022-12-08T05:05:18.527Z,59.42
2022-12-08T05:10:22.557Z,63.59
2022-12-08T05:15:26.545Z,63.01
2022-12-08T05:20:30.261Z,60.03
2022-12-08T05:25:34.021Z,64.33
2022-12-08T05:30:37.749Z,61.10
2022-12-08T05:35:41.592Z,61.00
2022-12-08T05:40:45.606Z,65.03
2022-12-08T05:45:50.280Z,61.34
2022-12-08T05:50:54.066Z,59.97
2022-12-08T05:55:58.204Z,63.00
2022-12-08T06:01:02.335Z,60.24
2022-12-08T06:06:06.775Z,59.82
2022-12-08T06:11:11.083Z,64.98
2022-12-08T06:16:14.811Z,62.40
2022-12-08T06:21:20.440Z,59.11
2022-12-08T06:26:24.324Z,63.95
2022-12-08T06:31:28.793Z,60.56
2022-12-08T06:36:33.540Z,60.74
2022-12-08T06:41:57.711Z,64.07
2022-12-08T06:47:01.946Z,59.00
2022-12-08T06:52:05.769Z,62.52
2022-12-08T06:57:09.389Z,62.25
2022-12-08T07:02:13.298Z,59.89
2022-12-08T07:07:16.946Z,57.76
2022-12-08T07:12:20.845Z,62.95
2022-12-08T07:17:25.407Z,61.14
2022-12-08T07:22:29.031Z,58.20
2022-12-08T07:27:32.852Z,63.32
2022-12-08T07:32:39.122Z,60.20
2022-12-08T07:37:43.572Z,59.28
2022-12-08T07:42:47.200Z,63.47
2022-12-08T07:47:51.131Z,59.79
2022-12-08T07:52:55.050Z,61.30
2022-12-08T07:57:58.981Z,62.03
2022-12-08T08:03:03.663Z,59.17
2022-12-08T08:08:07.551Z,63.19
2022-12-08T08:13:11.611Z,60.57
2022-12-08T08:18:15.696Z,60.01
2022-12-08T08:23:19.639Z,63.32
2022-12-08T08:28:23.367Z,59.93
2022-12-08T08:33:28.103Z,59.93
2022-12-08T08:38:32.340Z,62.66
2022-12-08T08:43:38.694Z,59.33
2022-12-08T08:48:42.993Z,62.46
2022-12-08T08:53:46.709Z,59.31
2022-12-08T08:58:53.000Z,60.94
2022-12-08T09:03:58.225Z,60.81
2022-12-08T09:09:02.272Z,59.92
2022-12-08T09:14:07.146Z,62.14
2022-12-08T09:19:11.086Z,58.42
2022-12-08T09:24:17.951Z,62.48
2022-12-08T09:29:22.063Z,61.11
2022-12-08T09:34:26.089Z,57.04
2022-12-08T09:39:30.114Z,59.28
2022-12-08T09:44:50.593Z,58.06
2022-12-08T09:50:36.645Z,51.47
2022-12-08T09:55:57.922Z,51.88
2022-12-08T10:01:01.720Z,55.30
2022-12-08T10:06:41.626Z,59.20
2022-12-08T10:12:09.573Z,61.94
2022-12-08T10:18:01.598Z,59.99
2022-12-08T10:23:14.073Z,60.39
2022-12-08T10:28:17.773Z,61.93
2022-12-08T10:33:24.034Z,57.66
2022-12-08T10:38:36.084Z,59.11
2022-12-08T10:43:50.559Z,61.53
2022-12-08T10:49:13.648Z,61.16
2022-12-08T10:54:39.787Z,59.64
2022-12-08T10:59:43.605Z,62.66
2022-12-08T11:04:48.251Z,58.64
2022-12-08T11:09:58.533Z,62.27
2022-12-08T11:15:05.678Z,59.75
2022-12-08T11:20:09.642Z,61.75
2022-12-08T11:25:29.237Z,61.07
2022-12-08T11:30:38.027Z,60.71
2022-12-08T11:35:46.177Z,62.62
2022-12-08T11:41:15.861Z,58.73
2022-12-08T11:46:40.856Z,62.09
2022-12-08T11:52:29.645Z,60.63
2022-12-08T11:57:33.808Z,61.39
2022-12-08T12:02:47.314Z,60.96
2022-12-08T12:08:25.300Z,59.50
2022-12-08T12:14:26.761Z,62.28
2022-12-08T12:19:39.506Z,59.42
2022-12-08T12:24:49.182Z,62.71
2022-12-08T12:30:05.031Z,59.35
2022-12-08T12:35:27.032Z,61.20
2022-12-08T12:40:42.575Z,61.03
2022-12-08T12:45:46.958Z,60.24
2022-12-08T12:50:52.901Z,64.09
2022-12-08T12:56:01.092Z,62.63
2022-12-08T13:01:11.009Z,60.72
2022-12-08T13:06:24.285Z,64.23
2022-12-08T13:11:28.162Z,65.09
2022-12-08T13:16:35.895Z,62.92
2022-12-08T13:21:41.016Z,63.04
2022-12-08T13:27:04.110Z,63.17
2022-12-08T13:32:07.942Z,62.16
2022-12-08T13:37:11.573Z,62.48
2022-12-08T13:42:27.990Z,63.12
2022-12-08T13:47:59.636Z,62.44
2022-12-08T13:53:49.529Z,63.63
2022-12-08T13:58:39.243Z,64.30
2022-12-08T14:09:29.412Z,63.86
2022-12-08T14:15:01.656Z,64.14
2022-12-08T14:20:30.573Z,63.66
2022-12-08T14:25:36.370Z,64.65
2022-12-08T14:30:40.892Z,65.50
2022-12-08T14:35:53.694Z,67.24
2022-12-08T14:41:08.266Z,66.85
2022-12-08T14:46:34.075Z,66.08
2022-12-08T14:51:41.302Z,67.07
2022-12-08T14:56:55.624Z,67.88
2022-12-08T15:02:24.830Z,66.41
2022-12-08T15:07:36.098Z,66.67
2022-12-08T15:12:39.736Z,66.76
2022-12-08T15:18:16.271Z,65.00
2022-12-08T15:23:25.011Z,64.98
2022-12-08T15:28:30.688Z,65.65
2022-12-08T15:33:36.872Z,64.91
2022-12-08T15:38:43.798Z,65.03
2022-12-08T15:43:48.138Z,65.66
2022-12-08T15:48:57.809Z,67.06
2022-12-08T15:54:04.277Z,67.34
2022-12-08T15:59:18.802Z,67.53
2022-12-08T16:09:47.428Z,67.69
2022-12-08T16:20:18.342Z,68.02
2022-12-08T16:25:23.394Z,67.06
2022-12-08T16:30:27.261Z,66.06
2022-12-08T16:35:31.689Z,66.21
2022-12-08T16:40:55.223Z,67.30
2022-12-08T16:45:59.650Z,66.14
2022-12-08T16:51:04.966Z,67.94
2022-12-08T16:56:08.690Z,69.81
2022-12-08T17:01:16.198Z,69.44
2022-12-08T17:06:21.456Z,69.34
2022-12-08T17:11:28.714Z,69.62
2022-12-08T17:16:32.392Z,70.94
2022-12-08T17:21:36.592Z,67.63
2022-12-08T17:26:40.748Z,67.60
2022-12-08T17:31:44.724Z,67.99
2022-12-08T17:36:48.406Z,67.43
2022-12-08T17:41:52.223Z,68.50
2022-12-08T17:46:56.150Z,68.08
2022-12-08T17:52:04.095Z,69.21
2022-12-08T17:57:07.800Z,70.15
2022-12-08T18:02:12.541Z,69.83
2022-12-08T18:07:16.263Z,68.89
2022-12-08T18:12:23.637Z,70.57
2022-12-08T18:17:27.917Z,67.99
2022-12-08T18:22:31.735Z,66.89
2022-12-08T18:27:42.749Z,70.37
2022-12-08T18:32:47.192Z,66.92
2022-12-08T18:37:51.959Z,66.30
2022-12-08T18:42:56.454Z,67.99
2022-12-08T18:48:01.008Z,67.86
2022-12-08T18:53:04.620Z,67.23
2022-12-08T18:58:11.546Z,64.01
2022-12-08T19:03:15.878Z,61.74
2022-12-08T19:08:22.549Z,61.92
2022-12-08T19:13:28.428Z,60.22
2022-12-08T19:18:32.211Z,60.56
2022-12-08T19:23:36.581Z,60.08
2022-12-08T19:28:41.951Z,60.80
2022-12-08T19:33:45.549Z,61.45
2022-12-08T19:39:08.444Z,62.87
2022-12-08T19:44:49.017Z,62.18
2022-12-08T19:50:18.058Z,63.68
2022-12-08T19:55:23.977Z,62.76
2022-12-08T20:00:32.799Z,62.35
2022-12-08T20:05:40.478Z,62.55
2022-12-08T20:10:46.050Z,63.19
2022-12-08T20:15:51.680Z,64.59
2022-12-08T20:20:57.300Z,63.97
2022-12-08T20:26:07.727Z,64.20
2022-12-08T20:31:27.024Z,66.39
2022-12-08T20:36:32.424Z,66.68
2022-12-08T20:41:39.286Z,67.58
2022-12-08T20:46:49.287Z,68.90
2022-12-08T20:51:53.716Z,69.36
2022-12-08T20:56:58.228Z,69.97
2022-12-08T21:02:03.087Z,67.56
2022-12-08T21:07:09.316Z,65.89
2022-12-08T21:12:13.899Z,66.55
2022-12-08T21:17:19.031Z,66.58
2022-12-08T21:22:22.994Z,66.37
2022-12-08T21:27:27.251Z,67.51
2022-12-08T21:32:31.142Z,67.28
2022-12-08T21:37:36.138Z,66.01
2022-12-08T21:42:46.540Z,64.46
2022-12-08T21:47:51.210Z,65.75
2022-12-08T21:52:55.606Z,66.13
2022-12-08T21:58:01.273Z,65.24
2022-12-08T22:03:07.152Z,65.04
2022-12-08T22:08:10.928Z,65.36
2022-12-08T22:13:15.150Z,65.04
2022-12-08T22:18:19.485Z,64.83
2022-12-08T22:23:23.546Z,64.64
2022-12-08T22:28:32.297Z,63.26
2022-12-08T22:33:36.112Z,60.50
2022-12-08T22:38:41.074Z,62.92
2022-12-08T22:43:46.853Z,62.98
2022-12-08T22:48:53.181Z,61.94
2022-12-08T22:53:57.041Z,61.66
2022-12-08T22:59:00.988Z,61.15
2022-12-08T23:04:05.783Z,61.55
2022-12-08T23:09:09.500Z,61.92
2022-12-08T23:14:13.567Z,62.38
2022-12-08T23:19:17.521Z,62.70
2022-12-08T23:24:21.722Z,63.23
2022-12-08T23:29:26.015Z,63.24
2022-12-08T23:34:29.699Z,62.80
2022-12-08T23:39:33.396Z,62.58
2022-12-08T23:44:37.654Z,62.98
2022-12-08T23:49:42.505Z,62.63
2022-12-08T23:54:46.999Z,62.41
2022-12-08T23:59:50.921Z,63.14
